Time;durP1;ratioP1;P1;durP2;ratioP2;P2;SDS_P1;SDS_P2;PMS_P1;PMS_P2;Temp;Humidity;BMP_temperature;BMP_pressure;BME280_temperature;BME280_humidity;BME280_pressure;Samples;Min_cycle;Max_cycle;Signal;HPM_P1;HPM_P2
2021/01/06 00:01:15;;;;;;;3.33;3.03;;;13.60;59.00;;;;;;4974451;28;20031;-53
2021/01/06 00:03:41;;;;;;;3.22;2.45;;;13.60;58.80;;;;;;4974375;28;20038;-53
2021/01/06 00:06:13;;;;;;;3.45;2.63;;;13.70;58.70;;;;;;4974327;28;20060;-53
2021/01/06 00:08:51;;;;;;;4.17;3.22;;;13.60;58.60;;;;;;4847742;28;10259152;-45
2021/01/06 00:11:38;;;;;;;2.90;2.60;;;13.80;58.40;;;;;;4975066;28;20338;-54
2021/01/06 00:14:17;;;;;;;2.45;2.25;;;13.80;58.10;;;;;;4975287;28;20367;-51
2021/01/06 00:16:56;;;;;;;3.90;3.13;;;13.90;58.00;;;;;;4974870;28;20366;-53
2021/01/06 00:19:21;;;;;;;2.60;2.40;;;14.00;58.00;;;;;;4975152;28;20042;-54
2021/01/06 00:21:47;;;;;;;2.63;2.40;;;14.00;57.70;;;;;;4975158;28;20031;-53
2021/01/06 00:24:12;;;;;;;2.85;2.65;;;14.00;57.90;;;;;;4975381;28;20098;-54
2021/01/06 00:26:38;;;;;;;2.58;2.38;;;14.00;57.70;;;;;;4975063;28;20023;-53
2021/01/06 00:29:13;;;;;;;2.78;2.50;;;14.00;57.70;;;;;;4974910;28;20034;-54
2021/01/06 00:31:40;;;;;;;3.72;2.10;;;13.90;57.60;;;;;;4975005;28;20030;-52
2021/01/06 00:34:06;;;;;;;2.65;2.33;;;14.00;57.60;;;;;;4974847;28;20031;-57
2021/01/06 00:36:32;;;;;;;3.60;2.47;;;13.90;57.60;;;;;;4957541;28;20023;-54
2021/01/06 00:38:58;;;;;;;2.85;2.55;;;13.80;57.60;;;;;;4975083;28;20030;-53
2021/01/06 00:41:30;;;;;;;3.10;2.80;;;13.80;57.50;;;;;;4974872;28;20500;-53
2021/01/06 00:43:57;;;;;;;2.67;2.42;;;13.80;57.60;;;;;;4974883;28;20513;-52
2021/01/06 00:46:28;;;;;;;2.80;2.53;;;13.80;57.70;;;;;;4974906;28;20058;-50
2021/01/06 00:48:54;;;;;;;2.35;2.15;;;13.70;57.80;;;;;;4957326;28;20062;-51
2021/01/06 00:51:19;;;;;;;3.15;2.65;;;13.70;57.80;;;;;;4974642;28;20035;-54
2021/01/06 00:53:45;;;;;;;3.78;2.30;;;13.70;57.80;;;;;;4974621;28;20055;-52
2021/01/06 00:56:10;;;;;;;2.55;2.35;;;13.70;57.80;;;;;;4974613;28;20026;-51
2021/01/06 00:58:36;;;;;;;3.40;3.10;;;13.60;57.80;;;;;;4974519;28;20034;-54
2021/01/06 01:01:02;;;;;;;2.53;2.33;;;13.60;57.90;;;;;;4974469;28;20025;-52
2021/01/06 01:03:27;;;;;;;2.38;2.17;;;13.60;58.00;;;;;;4974378;28;20031;-53
2021/01/06 01:05:53;;;;;;;2.90;2.35;;;13.50;57.90;;;;;;4974354;28;20050;-53
2021/01/06 01:08:19;;;;;;;3.17;2.40;;;13.50;58.00;;;;;;4973543;28;20078;-52
2021/01/06 01:10:47;;;;;;;2.47;2.15;;;13.50;58.10;;;;;;4957737;28;20047;-50
2021/01/06 01:13:14;;;;;;;2.28;2.08;;;13.50;58.20;;;;;;4974221;28;20038;-52
2021/01/06 01:15:41;;;;;;;2.80;2.50;;;13.50;58.20;;;;;;4974114;28;20104;-52
2021/01/06 01:18:12;;;;;;;2.15;1.95;;;13.50;58.30;;;;;;4974145;28;20034;-50
2021/01/06 01:20:45;;;;;;;2.47;2.28;;;13.30;58.20;;;;;;4974129;28;20109;-51
2021/01/06 01:23:12;;;;;;;2.65;2.30;;;13.40;58.30;;;;;;4974047;28;20031;-49
2021/01/06 01:25:38;;;;;;;2.50;2.30;;;13.40;58.40;;;;;;4974055;28;20034;-54
2021/01/06 01:28:04;;;;;;;2.15;1.95;;;13.40;58.40;;;;;;4956555;28;20072;-52
2021/01/06 01:30:30;;;;;;;3.03;2.72;;;13.40;58.40;;;;;;4973995;28;20102;-51
2021/01/06 01:32:56;;;;;;;2.92;2.22;;;13.40;58.40;;;;;;4973809;28;20031;-54
2021/01/06 01:35:28;;;;;;;2.13;1.90;;;13.30;58.40;;;;;;4956404;28;20531;-52
2021/01/06 01:37:56;;;;;;;2.40;2.20;;;13.40;59.00;;;;;;4973806;28;20033;-51
2021/01/06 01:40:25;;;;;;;2.63;2.42;;;13.50;58.80;;;;;;4973700;28;20015;-53
2021/01/06 01:43:14;;;;;;;3.20;2.30;;;13.50;58.70;;;;;;4973564;28;20450;-54
2021/01/06 01:45:45;;;;;;;2.55;2.00;;;13.50;58.60;;;;;;4946115;28;20066;-49
2021/01/06 01:48:30;;;;;;;2.10;1.88;;;13.60;58.50;;;;;;4973533;28;20038;-51
2021/01/06 01:51:04;;;;;;;2.10;1.90;;;13.80;58.20;;;;;;4973571;28;20050;-53
2021/01/06 01:53:40;;;;;;;2.05;1.63;;;13.80;57.90;;;;;;4973479;28;20035;-54
2021/01/06 01:56:10;;;;;;;1.98;1.70;;;13.90;57.90;;;;;;4973549;28;20062;-54
2021/01/06 01:58:38;;;;;;;1.95;1.55;;;13.90;57.60;;;;;;4973420;28;20015;-54
2021/01/06 02:01:04;;;;;;;2.20;1.70;;;14.10;57.40;;;;;;4973353;28;20031;-50
2021/01/06 02:03:43;;;;;;;1.88;1.77;;;14.10;57.30;;;;;;4973383;28;20034;-54
2021/01/06 02:06:36;;;;;;;2.05;1.80;;;14.10;57.30;;;;;;4973332;28;20393;-53
2021/01/06 02:09:20;;;;;;;1.73;1.63;;;14.10;57.20;;;;;;4965594;28;20042;-51
2021/01/06 02:12:02;;;;;;;2.10;1.90;;;14.10;57.20;;;;;;4973456;28;20018;-54
2021/01/06 02:14:51;;;;;;;1.50;1.40;;;14.10;57.50;;;;;;4973217;28;20054;-53
2021/01/06 02:17:16;;;;;;;1.67;1.58;;;14.00;57.40;;;;;;4972501;28;20442;-52
2021/01/06 02:19:45;;;;;;;1.45;1.33;;;14.00;57.40;;;;;;4973077;28;20027;-53
2021/01/06 02:22:20;;;;;;;2.25;2.05;;;13.90;57.20;;;;;;4973068;28;20034;-51
2021/01/06 02:24:48;;;;;;;1.83;1.63;;;14.00;57.60;;;;;;4955853;28;20418;-53
2021/01/06 02:27:14;;;;;;;1.70;1.60;;;14.00;57.50;;;;;;4972894;28;20062;-50
2021/01/06 02:29:40;;;;;;;2.92;1.73;;;14.00;57.50;;;;;;4973086;28;20488;-54
2021/01/06 02:32:07;;;;;;;1.75;1.45;;;14.00;57.50;;;;;;4973088;28;20019;-54
2021/01/06 02:34:38;;;;;;;1.70;1.60;;;13.90;57.40;;;;;;4955668;28;20106;-51
2021/01/06 02:37:05;;;;;;;2.50;1.73;;;13.90;57.50;;;;;;4955664;28;20489;-52
2021/01/06 02:39:31;;;;;;;2.42;1.83;;;13.90;57.60;;;;;;4973040;28;20062;-52
2021/01/06 02:41:57;;;;;;;2.25;1.60;;;13.90;57.50;;;;;;4973019;28;20019;-51
2021/01/06 02:44:23;;;;;;;1.80;1.70;;;13.90;57.50;;;;;;4972965;28;20033;-51
2021/01/06 02:46:50;;;;;;;2.28;1.83;;;13.90;57.50;;;;;;4972896;28;20465;-53
2021/01/06 02:49:16;;;;;;;1.25;1.15;;;13.90;57.60;;;;;;4955550;28;20042;-50
2021/01/06 02:51:53;;;;;;;1.35;1.25;;;13.90;57.60;;;;;;4972895;28;20385;-53
2021/01/06 02:54:26;;;;;;;1.70;1.60;;;13.90;57.50;;;;;;4973173;28;20042;-54
2021/01/06 02:56:55;;;;;;;1.88;1.67;;;13.90;57.60;;;;;;4972812;28;20029;-52
2021/01/06 02:59:24;;;;;;;2.47;1.48;;;13.90;57.60;;;;;;4955389;28;20023;-51
2021/01/06 03:01:52;;;;;;;1.65;1.23;;;13.90;57.60;;;;;;4972750;28;20030;-50
2021/01/06 03:04:19;;;;;;;2.80;1.50;;;13.90;57.60;;;;;;4972837;28;20023;-52
2021/01/06 03:06:51;;;;;;;1.88;1.73;;;13.90;57.60;;;;;;4972646;28;20037;-51
2021/01/06 03:09:28;;;;;;;1.73;1.60;;;13.90;57.70;;;;;;4973444;28;20158;-54
2021/01/06 03:11:55;;;;;;;1.77;1.67;;;13.90;57.70;;;;;;4972764;28;20027;-51
2021/01/06 03:14:23;;;;;;;1.85;1.45;;;13.90;57.70;;;;;;4955687;28;20026;-53
2021/01/06 03:16:49;;;;;;;1.60;1.38;;;13.90;57.70;;;;;;4955278;28;20575;-53
2021/01/06 03:19:15;;;;;;;2.03;1.63;;;13.90;57.80;;;;;;4972598;28;20019;-49
2021/01/06 03:21:43;;;;;;;1.90;1.63;;;13.90;57.60;;;;;;4972683;28;20026;-50
2021/01/06 03:24:11;;;;;;;1.67;1.45;;;13.80;57.60;;;;;;4955138;28;20074;-50
2021/01/06 03:26:39;;;;;;;1.33;1.23;;;13.90;57.60;;;;;;4972530;28;20505;-51
2021/01/06 03:29:05;;;;;;;1.60;1.50;;;13.90;57.70;;;;;;4972512;28;20050;-54
2021/01/06 03:31:39;;;;;;;1.50;1.40;;;13.90;57.60;;;;;;4973616;28;20041;-52
2021/01/06 03:34:27;;;;;;;2.08;1.60;;;13.80;57.60;;;;;;4976135;28;20031;-53
2021/01/06 03:37:03;;;;;;;1.20;1.10;;;13.90;57.70;;;;;;4975863;28;20026;-51
2021/01/06 03:39:36;;;;;;;1.30;1.13;;;13.90;58.30;;;;;;4975756;28;20030;-51
2021/01/06 03:42:03;;;;;;;1.42;1.33;;;13.90;57.60;;;;;;4975892;28;20058;-52
2021/01/06 03:44:30;;;;;;;1.90;1.60;;;13.80;57.50;;;;;;4975997;28;20030;-52
2021/01/06 03:46:58;;;;;;;1.30;1.20;;;13.80;57.50;;;;;;4975921;28;20109;-54
2021/01/06 03:49:30;;;;;;;1.60;1.30;;;13.90;57.70;;;;;;4975875;28;20401;-51
2021/01/06 03:52:37;;;;;;;1.48;1.30;;;13.80;57.70;;;;;;4975959;28;20133;-49
2021/01/06 03:55:11;;;;;;;1.52;1.30;;;13.80;57.60;;;;;;4975676;28;20081;-52
2021/01/06 03:57:38;;;;;;;1.23;1.10;;;13.80;57.70;;;;;;4975732;28;20045;-50
2021/01/06 04:00:07;;;;;;;2.58;1.40;;;13.90;57.70;;;;;;4975626;28;20022;-51
2021/01/06 04:02:42;;;;;;;1.17;1.08;;;13.80;57.70;;;;;;4975548;28;20038;-50
2021/01/06 04:05:15;;;;;;;1.30;1.20;;;13.80;57.60;;;;;;4975754;28;20248;-53
2021/01/06 04:07:53;;;;;;;1.40;1.05;;;13.80;57.60;;;;;;4975410;28;20066;-49
2021/01/06 04:10:28;;;;;;;1.38;1.27;;;13.80;57.60;;;;;;4976056;28;20133;-50
2021/01/06 04:12:53;;;;;;;1.20;1.08;;;13.80;57.60;;;;;;4975558;28;20030;-50
2021/01/06 04:15:19;;;;;;;1.13;1.02;;;13.80;57.60;;;;;;4975268;28;20027;-53
2021/01/06 04:17:50;;;;;;;1.42;1.33;;;14.00;57.70;;;;;;4975379;28;20101;-50
2021/01/06 04:20:39;;;;;;;1.13;1.08;;;13.80;57.60;;;;;;4975247;28;20050;-50
2021/01/06 04:23:12;;;;;;;1.67;1.00;;;13.80;57.60;;;;;;4975551;28;20023;-52
2021/01/06 04:25:41;;;;;;;0.98;0.90;;;13.80;57.50;;;;;;4975269;28;20031;-51
2021/01/06 04:28:17;;;;;;;1.23;1.00;;;13.80;57.60;;;;;;4975124;28;20082;-53
2021/01/06 04:31:05;;;;;;;1.60;1.05;;;13.80;57.60;;;;;;4957704;28;20050;-50
2021/01/06 04:33:36;;;;;;;0.85;0.85;;;13.80;57.50;;;;;;4975071;28;20022;-54
2021/01/06 04:36:06;;;;;;;1.40;1.20;;;13.80;57.50;;;;;;4957655;28;20496;-50
2021/01/06 04:38:35;;;;;;;1.15;0.90;;;13.80;57.60;;;;;;4974984;28;20362;-49
2021/01/06 04:41:30;;;;;;;1.20;1.08;;;13.80;58.20;;;;;;4974922;28;20050;-54
2021/01/06 04:44:31;;;;;;;2.10;1.38;;;13.80;57.50;;;;;;4973299;28;20075;-53
2021/01/06 04:47:18;;;;;;;1.08;0.98;;;13.80;57.50;;;;;;4974768;28;20106;-53
2021/01/06 04:50:30;;;;;;;2.15;1.52;;;13.80;57.50;;;;;;4974807;28;20030;-52
2021/01/06 04:53:04;;;;;;;0.88;0.82;;;13.80;57.60;;;;;;4974581;28;20018;-54
2021/01/06 04:56:02;;;;;;;1.20;1.10;;;13.80;57.60;;;;;;4957125;28;20069;-52
2021/01/06 04:58:27;;;;;;;1.30;1.20;;;13.80;57.60;;;;;;4957142;28;20389;-51
2021/01/06 05:01:04;;;;;;;0.95;0.90;;;13.70;57.50;;;;;;4974374;28;20019;-53
2021/01/06 05:03:44;;;;;;;1.55;1.20;;;13.70;57.60;;;;;;4974451;28;20105;-52
2021/01/06 05:06:40;;;;;;;1.35;1.23;;;13.70;57.50;;;;;;4974304;28;20417;-51
2021/01/06 05:09:26;;;;;;;1.92;0.98;;;13.70;57.60;;;;;;4974484;28;20053;-51
2021/01/06 05:11:59;;;;;;;1.10;0.93;;;13.70;57.60;;;;;;4974245;28;20039;-53
2021/01/06 05:14:33;;;;;;;1.10;0.90;;;13.70;57.60;;;;;;4974209;28;20034;-52
2021/01/06 05:17:00;;;;;;;1.17;0.93;;;13.70;57.60;;;;;;4974155;28;20026;-54
2021/01/06 05:19:31;;;;;;;1.20;1.05;;;13.70;57.60;;;;;;4974122;28;20025;-53
2021/01/06 05:21:57;;;;;;;1.33;1.00;;;13.70;57.60;;;;;;4956759;28;20022;-53
2021/01/06 05:24:34;;;;;;;1.35;1.15;;;13.60;57.60;;;;;;4974091;28;20026;-51
2021/01/06 05:27:21;;;;;;;0.80;0.80;;;13.60;57.60;;;;;;4974022;28;20022;-49
2021/01/06 05:29:58;;;;;;;1.33;0.82;;;13.70;57.90;;;;;;4974009;28;20041;-52
2021/01/06 05:32:28;;;;;;;0.80;0.80;;;13.70;58.00;;;;;;4956526;28;20105;-50
2021/01/06 05:35:08;;;;;;;;;;;13.70;57.90;;;;;;4974385;28;20608;-54
2021/01/06 05:37:34;;;;;;;0.90;0.75;;;13.70;58.10;;;;;;4973805;28;19905;-50
2021/01/06 05:40:27;;;;;;;1.33;0.90;;;13.70;58.20;;;;;;4973730;28;20046;-50
2021/01/06 05:42:58;;;;;;;1.90;0.73;;;13.70;58.20;;;;;;4954133;28;20512;-51
2021/01/06 05:45:39;;;;;;;1.15;0.90;;;13.70;58.20;;;;;;4956304;28;20030;-50
2021/01/06 05:48:34;;;;;;;0.93;0.90;;;13.70;58.30;;;;;;4973671;28;20162;-53
2021/01/06 05:51:30;;;;;;;1.33;1.08;;;13.70;58.30;;;;;;4964772;28;20043;-52
2021/01/06 05:54:13;;;;;;;2.55;1.30;;;13.70;58.30;;;;;;4973289;28;20393;-50
2021/01/06 05:57:01;;;;;;;0.95;0.85;;;13.70;58.30;;;;;;4973565;28;20019;-50
2021/01/06 05:59:54;;;;;;;1.00;0.90;;;13.70;58.30;;;;;;4973498;28;20030;-52
2021/01/06 06:02:37;;;;;;;1.10;0.90;;;13.70;58.20;;;;;;4962892;28;20042;-52
2021/01/06 06:05:34;;;;;;;1.30;0.93;;;13.70;58.30;;;;;;4955936;28;20477;-50
2021/01/06 06:08:38;;;;;;;1.40;0.80;;;13.70;58.30;;;;;;4973190;28;20041;-52
2021/01/06 06:11:03;;;;;;;1.58;0.90;;;13.90;58.00;;;;;;4973987;28;20047;-53
2021/01/06 06:14:06;;;;;;;1.00;0.90;;;14.10;57.60;;;;;;4973219;28;20041;-52
2021/01/06 06:16:59;;;;;;;0.73;0.63;;;14.30;57.10;;;;;;4973121;28;20473;-52
2021/01/06 06:19:51;;;;;;;0.73;0.70;;;14.50;56.60;;;;;;4972972;28;20030;-53
2021/01/06 06:23:02;;;;;;;0.80;0.73;;;14.60;56.20;;;;;;4973103;28;20117;-51
2021/01/06 06:25:34;;;;;;;1.10;0.80;;;14.70;56.20;;;;;;4952935;28;20042;-51
2021/01/06 06:28:05;;;;;;;1.27;0.60;;;14.80;56.00;;;;;;4972940;28;20072;-53
2021/01/06 06:30:35;;;;;;;1.65;0.80;;;14.80;55.80;;;;;;4972848;28;20026;-52
2021/01/06 06:33:01;;;;;;;0.77;0.60;;;14.90;55.60;;;;;;4972857;28;20553;-54
2021/01/06 06:35:32;;;;;;;1.25;0.70;;;15.00;55.50;;;;;;4972928;28;20029;-52
2021/01/06 06:38:01;;;;;;;1.20;0.80;;;15.00;55.40;;;;;;4939524;28;20023;-53
2021/01/06 06:40:57;;;;;;;0.68;0.60;;;15.00;55.30;;;;;;4972826;28;20030;-52
2021/01/06 06:43:42;;;;;;;0.75;0.73;;;15.10;55.10;;;;;;4972822;28;20027;-51
2021/01/06 06:46:31;;;;;;;1.45;0.82;;;15.10;55.20;;;;;;4972824;28;20023;-53
2021/01/06 06:49:24;;;;;;;0.63;0.63;;;15.00;55.40;;;;;;4955283;28;20121;-53
2021/01/06 06:52:09;;;;;;;0.93;0.85;;;14.90;55.60;;;;;;4972916;28;20023;-51
2021/01/06 06:54:48;;;;;;;0.90;0.90;;;14.90;55.80;;;;;;4955560;28;20045;-50
2021/01/06 06:57:14;;;;;;;0.68;0.68;;;14.80;55.80;;;;;;4972787;28;20061;-53
2021/01/06 07:00:08;;;;;;;1.40;1.05;;;14.90;55.80;;;;;;4972807;28;20066;-53
2021/01/06 07:02:46;;;;;;;0.70;0.70;;;15.00;55.80;;;;;;4955427;28;20118;-51
2021/01/06 07:05:40;;;;;;;3.42;0.82;;;15.10;56.30;;;;;;4973033;28;20027;-53
2021/01/06 07:08:15;;;;;;;3.47;0.73;;;15.10;55.50;;;;;;4976209;28;20034;-55
2021/01/06 07:10:45;;;;;;;1.63;0.57;;;15.20;55.40;;;;;;4977201;28;20571;-54
2021/01/06 07:13:23;;;;;;;0.82;0.60;;;15.30;55.10;;;;;;4976418;28;20019;-52
2021/01/06 07:15:57;;;;;;;1.48;1.00;;;15.40;55.00;;;;;;4976624;28;20414;-54
2021/01/06 07:18:40;;;;;;;0.80;0.50;;;15.50;54.80;;;;;;4976440;28;20023;-52
2021/01/06 07:21:06;;;;;;;0.90;0.60;;;15.50;54.60;;;;;;4976366;28;20054;-53
2021/01/06 07:23:35;;;;;;;0.95;0.68;;;15.60;54.50;;;;;;4976273;28;20098;-50
2021/01/06 07:26:29;;;;;;;1.17;0.80;;;15.60;54.40;;;;;;4976182;28;20119;-52
2021/01/06 07:29:04;;;;;;;0.73;0.60;;;15.70;54.30;;;;;;4974966;28;20055;-53
2021/01/06 07:31:41;;;;;;;1.58;0.60;;;15.80;54.10;;;;;;4976194;28;20019;-54
2021/01/06 07:34:17;;;;;;;1.23;0.90;;;15.80;53.90;;;;;;4976278;28;20027;-53
2021/01/06 07:36:50;;;;;;;1.02;0.65;;;15.90;53.90;;;;;;4976276;28;20030;-53
2021/01/06 07:39:30;;;;;;;1.52;0.70;;;15.90;53.80;;;;;;4976340;28;20019;-53
2021/01/06 07:42:01;;;;;;;1.23;0.47;;;15.90;53.80;;;;;;4975839;28;20090;-53
2021/01/06 07:44:30;;;;;;;0.77;0.65;;;16.00;53.70;;;;;;4975810;28;20041;-52
2021/01/06 07:47:10;;;;;;;2.20;0.60;;;16.00;53.60;;;;;;4975773;28;20023;-54
2021/01/06 07:49:47;;;;;;;0.60;0.45;;;16.00;53.80;;;;;;4975860;28;20309;-51
2021/01/06 07:52:38;;;;;;;2.20;0.70;;;16.10;54.10;;;;;;4976086;28;20109;-54
2021/01/06 07:55:25;;;;;;;0.70;0.55;;;16.10;54.40;;;;;;4975962;28;20118;-52
2021/01/06 07:57:56;;;;;;;0.50;0.50;;;16.20;54.60;;;;;;4975783;28;20067;-54
2021/01/06 08:00:30;;;;;;;1.63;0.65;;;16.30;54.70;;;;;;4975725;28;20523;-51
2021/01/06 08:03:05;;;;;;;1.67;0.80;;;16.30;54.90;;;;;;4975900;28;20046;-51
2021/01/06 08:05:34;;;;;;;1.00;0.73;;;16.40;54.90;;;;;;4975751;28;20267;-53
2021/01/06 08:08:15;;;;;;;2.67;0.80;;;16.40;54.90;;;;;;4975549;28;20576;-52
2021/01/06 08:10:47;;;;;;;1.20;0.70;;;16.50;55.20;;;;;;4958848;28;20085;-54
2021/01/06 08:13:28;;;;;;;0.68;0.68;;;16.50;55.30;;;;;;4958222;28;20030;-52
2021/01/06 08:16:10;;;;;;;0.85;0.65;;;16.50;55.70;;;;;;4975331;28;20030;-51
2021/01/06 08:18:49;;;;;;;1.20;0.90;;;16.40;56.20;;;;;;4975092;28;20019;-52
2021/01/06 08:21:28;;;;;;;0.90;0.90;;;16.20;56.50;;;;;;4975323;28;20034;-51
2021/01/06 08:24:31;;;;;;;1.30;0.80;;;16.10;57.00;;;;;;4957764;28;20030;-50
2021/01/06 08:27:00;;;;;;;1.48;0.45;;;16.00;57.40;;;;;;4971252;28;20039;-55
2021/01/06 08:29:33;;;;;;;4.15;0.98;;;15.90;57.50;;;;;;4975335;28;20035;-54
2021/01/06 08:32:24;;;;;;;1.02;0.93;;;15.80;57.50;;;;;;4975119;28;20026;-54
2021/01/06 08:34:57;;;;;;;1.00;0.77;;;15.70;57.60;;;;;;4974561;28;20086;-54
2021/01/06 08:37:29;;;;;;;2.10;0.82;;;15.70;57.50;;;;;;4974891;28;20543;-53
2021/01/06 08:39:57;;;;;;;2.10;0.98;;;15.70;57.40;;;;;;4975224;28;20070;-56
2021/01/06 08:42:27;;;;;;;1.60;0.93;;;15.70;57.20;;;;;;4957703;28;20022;-53
2021/01/06 08:44:58;;;;;;;0.83;0.70;;;15.70;57.20;;;;;;4974795;28;20030;-54
2021/01/06 08:47:35;;;;;;;0.75;0.75;;;15.70;57.20;;;;;;4974991;28;20015;-55
2021/01/06 08:50:15;;;;;;;12.05;1.10;;;15.70;57.10;;;;;;4974892;28;20389;-55
2021/01/06 08:52:51;;;;;;;0.90;0.80;;;15.80;57.00;;;;;;4957344;28;20019;-55
2021/01/06 08:55:19;;;;;;;1.48;0.75;;;15.70;56.90;;;;;;4974557;28;20037;-55
2021/01/06 08:57:44;;;;;;;0.55;0.55;;;15.70;56.90;;;;;;4974590;28;20065;-49
2021/01/06 09:00:34;;;;;;;2.05;0.85;;;15.70;56.90;;;;;;4974478;28;20022;-49
2021/01/06 09:03:36;;;;;;;2.22;1.05;;;15.70;56.90;;;;;;4974404;28;20068;-55
2021/01/06 09:06:10;;;;;;;1.05;0.65;;;15.60;57.00;;;;;;4933893;28;20425;-54
2021/01/06 09:08:38;;;;;;;2.17;0.95;;;15.70;57.00;;;;;;4974393;28;20039;-55
2021/01/06 09:11:09;;;;;;;1.50;1.02;;;15.70;56.90;;;;;;4974057;28;20146;-52
2021/01/06 09:13:47;;;;;;;1.58;0.80;;;15.60;56.70;;;;;;4973511;28;20401;-55
2021/01/06 09:16:46;;;;;;;1.23;0.75;;;15.50;56.70;;;;;;4973381;28;20486;-55
2021/01/06 09:19:51;;;;;;;1.90;1.10;;;15.60;56.40;;;;;;4951428;28;20133;-53
2021/01/06 09:22:17;;;;;;;1.15;0.70;;;15.70;56.20;;;;;;4955878;28;20018;-55
2021/01/06 09:24:45;;;;;;;2.30;0.80;;;15.70;56.20;;;;;;4973576;28;20023;-55
2021/01/06 09:27:40;;;;;;;0.80;0.80;;;15.60;56.10;;;;;;4956662;28;20034;-55
2021/01/06 09:30:32;;;;;;;2.65;0.90;;;15.80;55.90;;;;;;4973428;28;20122;-54
2021/01/06 09:33:01;;;;;;;2.22;0.73;;;15.90;55.70;;;;;;4956430;28;20026;-54
2021/01/06 09:35:33;;;;;;;1.52;0.70;;;15.80;55.60;;;;;;4973820;28;20478;-54
2021/01/06 09:38:21;;;;;;;0.88;0.80;;;15.90;55.50;;;;;;4956315;28;20035;-54
2021/01/06 09:40:47;;;;;;;0.70;0.60;;;16.00;55.10;;;;;;4973706;28;20022;-54
2021/01/06 09:43:38;;;;;;;1.10;0.70;;;16.00;55.00;;;;;;4973694;28;20030;-52
2021/01/06 09:46:19;;;;;;;1.38;0.90;;;16.00;55.10;;;;;;4969785;28;20089;-54
2021/01/06 09:48:51;;;;;;;1.00;0.70;;;16.10;54.90;;;;;;4973684;28;20038;-53
2021/01/06 09:51:19;;;;;;;2.05;1.00;;;16.20;54.70;;;;;;4973712;28;20477;-50
2021/01/06 09:53:51;;;;;;;1.50;0.80;;;16.10;54.60;;;;;;4973589;28;20039;-52
2021/01/06 09:56:19;;;;;;;1.35;0.68;;;16.10;54.70;;;;;;4973607;28;20019;-54
2021/01/06 09:58:48;;;;;;;0.75;0.73;;;16.20;54.60;;;;;;4956337;28;20031;-53
2021/01/06 10:01:20;;;;;;;0.93;0.68;;;16.20;54.30;;;;;;4973457;28;20025;-54
2021/01/06 10:03:49;;;;;;;3.63;0.70;;;16.20;54.30;;;;;;4973461;28;20049;-54
2021/01/06 10:06:34;;;;;;;0.70;0.70;;;16.20;55.00;;;;;;4973697;28;20019;-54
2021/01/06 10:09:13;;;;;;;0.75;0.60;;;16.30;54.40;;;;;;4973302;28;20035;-55
2021/01/06 10:11:53;;;;;;;1.65;0.88;;;16.30;54.30;;;;;;4973960;28;20061;-52
2021/01/06 10:15:07;;;;;;;0.75;0.60;;;16.20;54.40;;;;;;4973368;28;20123;-51
2021/01/06 10:17:56;;;;;;;0.90;0.70;;;16.20;54.40;;;;;;4972557;28;20042;-53
2021/01/06 10:20:42;;;;;;;1.48;0.60;;;16.20;54.50;;;;;;4955763;28;20027;-54
2021/01/06 10:23:32;;;;;;;1.88;0.52;;;16.20;54.50;;;;;;4973213;28;20113;-54
2021/01/06 10:26:10;;;;;;;2.08;0.70;;;16.10;54.40;;;;;;4973206;28;20030;-55
2021/01/06 10:28:45;;;;;;;0.95;0.73;;;16.10;54.50;;;;;;4973109;28;20066;-53
2021/01/06 10:31:29;;;;;;;0.95;0.82;;;16.00;54.50;;;;;;4972975;28;20019;-54
2021/01/06 10:34:09;;;;;;;1.00;0.60;;;16.00;54.60;;;;;;4955792;28;20037;-54
2021/01/06 10:37:02;;;;;;;0.80;0.57;;;15.90;54.70;;;;;;4973072;28;20054;-54
2021/01/06 10:39:40;;;;;;;0.88;0.75;;;15.90;54.80;;;;;;4972973;28;20038;-54
2021/01/06 10:42:25;;;;;;;0.68;0.60;;;15.90;54.80;;;;;;4976628;28;20123;-54
2021/01/06 10:44:56;;;;;;;0.77;0.57;;;15.80;54.80;;;;;;4977104;28;20046;-55
2021/01/06 10:47:30;;;;;;;1.30;0.77;;;15.80;55.00;;;;;;4976852;28;20041;-55
2021/01/06 10:50:03;;;;;;;0.77;0.68;;;15.80;55.10;;;;;;4976952;28;20405;-53
2021/01/06 10:52:52;;;;;;;1.38;0.40;;;15.70;55.10;;;;;;4959460;28;20493;-55
2021/01/06 10:55:45;;;;;;;0.82;0.60;;;15.70;55.20;;;;;;4976929;28;20027;-55
2021/01/06 10:58:23;;;;;;;0.70;0.50;;;15.70;55.10;;;;;;4976614;28;20037;-55
2021/01/06 11:01:04;;;;;;;1.45;0.70;;;15.70;55.00;;;;;;4976789;28;20042;-53
2021/01/06 11:03:50;;;;;;;0.57;0.57;;;15.80;54.90;;;;;;4976717;28;20548;-53
2021/01/06 11:06:18;;;;;;;0.88;0.50;;;15.80;54.90;;;;;;4976675;28;20022;-55
2021/01/06 11:09:02;;;;;;;0.70;0.50;;;15.80;54.90;;;;;;4976602;28;20375;-54
2021/01/06 11:11:43;;;;;;;1.67;0.63;;;15.90;54.80;;;;;;4959797;28;20054;-55
2021/01/06 11:14:43;;;;;;;1.00;0.60;;;15.90;54.70;;;;;;4976426;28;20081;-56
2021/01/06 11:17:18;;;;;;;;;;;15.90;54.70;;;;;;4976871;28;20019;-56
2021/01/06 11:19:54;;;;;;;0.80;0.60;;;16.00;54.60;;;;;;4976390;28;20349;-53
2021/01/06 11:22:36;;;;;;;0.98;0.60;;;16.00;54.50;;;;;;4976535;28;20019;-54
2021/01/06 11:25:36;;;;;;;1.17;0.50;;;16.00;54.40;;;;;;4976330;28;20031;-51
2021/01/06 11:28:04;;;;;;;1.13;0.70;;;16.10;54.40;;;;;;4976025;28;20039;-54
2021/01/06 11:30:31;;;;;;;0.82;0.82;;;16.10;54.20;;;;;;4976124;28;20053;-54
2021/01/06 11:33:17;;;;;;;0.50;0.50;;;16.20;54.10;;;;;;4976022;28;20027;-55
2021/01/06 11:35:51;;;;;;;0.90;0.70;;;16.20;54.10;;;;;;4976063;28;20030;-53
2021/01/06 11:38:37;;;;;;;1.02;0.45;;;16.10;53.90;;;;;;4976014;28;20031;-53
2021/01/06 11:41:07;;;;;;;1.67;0.70;;;16.20;53.90;;;;;;4962257;28;20456;-50
2021/01/06 11:43:41;;;;;;;0.50;0.50;;;16.20;54.20;;;;;;4976162;28;20019;-53
2021/01/06 11:46:31;;;;;;;4.43;0.80;;;16.20;54.40;;;;;;4975942;28;20118;-54
2021/01/06 11:49:12;;;;;;;7.17;1.00;;;16.20;54.50;;;;;;4975904;28;20035;-52
2021/01/06 11:51:39;;;;;;;0.45;0.45;;;16.20;54.50;;;;;;4975367;28;20031;-51
2021/01/06 11:54:07;;;;;;;0.47;0.47;;;16.10;54.90;;;;;;4975673;28;20086;-48
2021/01/06 11:56:40;;;;;;;0.98;0.70;;;16.10;55.50;;;;;;4975765;28;20085;-51
2021/01/06 11:59:40;;;;;;;1.25;0.63;;;16.10;56.10;;;;;;4958257;28;20030;-48
2021/01/06 12:02:22;;;;;;;1.48;0.80;;;16.10;55.80;;;;;;4975842;28;20034;-51
2021/01/06 12:04:53;;;;;;;0.90;0.68;;;16.00;56.10;;;;;;4975474;28;20029;-51
2021/01/06 12:07:30;;;;;;;2.42;0.57;;;16.00;56.80;;;;;;4975323;28;20097;-50
2021/01/06 12:10:10;;;;;;;1.00;0.73;;;15.90;57.40;;;;;;4975993;28;20035;-50
2021/01/06 12:13:09;;;;;;;0.73;0.60;;;15.90;58.50;;;;;;4975240;28;20035;-54
2021/01/06 12:16:00;;;;;;;1.27;0.95;;;15.90;59.50;;;;;;4958020;28;20031;-51
2021/01/06 12:18:43;;;;;;;1.75;0.68;;;15.80;60.20;;;;;;4975447;28;20126;-51
2021/01/06 12:21:34;;;;;;;3.38;0.80;;;15.80;61.60;;;;;;4975309;28;20035;-48
2021/01/06 12:24:15;;;;;;;1.05;0.95;;;15.70;64.90;;;;;;4941925;28;20046;-49
2021/01/06 12:27:01;;;;;;;1.98;1.10;;;15.70;64.30;;;;;;4975340;28;20504;-49
2021/01/06 12:29:47;;;;;;;2.42;1.48;;;15.70;64.60;;;;;;4975156;28;20039;-50
2021/01/06 12:32:33;;;;;;;1.20;1.08;;;15.70;65.50;;;;;;4975176;28;20027;-51
2021/01/06 12:35:17;;;;;;;1.67;0.70;;;15.70;65.80;;;;;;4974436;28;20077;-51
2021/01/06 12:37:43;;;;;;;1.60;1.02;;;15.60;66.20;;;;;;4975007;28;20066;-51
2021/01/06 12:40:12;;;;;;;1.63;0.70;;;15.70;67.00;;;;;;4957546;28;20037;-54
2021/01/06 12:42:46;;;;;;;0.95;0.73;;;15.70;67.40;;;;;;4975000;28;20058;-53
2021/01/06 12:45:17;;;;;;;1.13;0.90;;;15.60;67.50;;;;;;4974694;28;20086;-52
2021/01/06 12:48:05;;;;;;;1.27;0.88;;;15.70;68.10;;;;;;4974646;28;20034;-48
2021/01/06 12:50:35;;;;;;;1.00;0.70;;;15.70;68.60;;;;;;4957191;28;20388;-49
2021/01/06 12:53:26;;;;;;;0.95;0.68;;;15.80;68.60;;;;;;4974732;28;20105;-48
2021/01/06 12:55:55;;;;;;;1.02;0.93;;;15.80;68.50;;;;;;4974727;28;20074;-51
2021/01/06 12:58:38;;;;;;;0.80;0.70;;;15.80;68.50;;;;;;4974621;28;20030;-48
2021/01/06 13:01:09;;;;;;;2.28;0.95;;;15.80;68.20;;;;;;4941648;28;20038;-49
2021/01/06 13:03:49;;;;;;;0.70;0.70;;;15.70;67.80;;;;;;4956332;28;20501;-49
2021/01/06 13:06:37;;;;;;;0.95;0.60;;;15.70;68.00;;;;;;4974425;28;20074;-50
2021/01/06 13:09:26;;;;;;;0.70;0.65;;;15.80;68.20;;;;;;4960485;28;20446;-52
2021/01/06 13:12:14;;;;;;;0.75;0.73;;;15.80;68.00;;;;;;4975037;28;20074;-49
2021/01/06 13:14:42;;;;;;;0.75;0.75;;;15.80;67.60;;;;;;4972679;28;20358;-49
2021/01/06 13:17:14;;;;;;;1.50;0.88;;;15.90;67.70;;;;;;4973708;28;20034;-47
2021/01/06 13:19:58;;;;;;;1.85;0.70;;;16.00;67.40;;;;;;4974061;28;20027;-48
2021/01/06 13:22:50;;;;;;;1.10;0.75;;;16.00;66.70;;;;;;4974009;28;20033;-49
2021/01/06 13:25:25;;;;;;;0.80;0.80;;;16.10;66.30;;;;;;4974124;28;20422;-49
2021/01/06 13:27:50;;;;;;;0.80;0.68;;;16.20;66.50;;;;;;4973609;28;20041;-50
2021/01/06 13:30:30;;;;;;;1.30;0.90;;;16.20;66.30;;;;;;4973861;28;20039;-51
2021/01/06 13:32:58;;;;;;;0.90;0.90;;;16.20;65.80;;;;;;4973995;28;20030;-50
2021/01/06 13:35:39;;;;;;;1.02;0.77;;;16.30;66.00;;;;;;4973892;28;20173;-49
2021/01/06 13:38:10;;;;;;;0.68;0.50;;;16.30;66.00;;;;;;4973902;28;20049;-49